Time;durP1;ratioP1;P1;durP2;ratioP2;P2;SDS_P1;SDS_P2;PMS_P1;PMS_P2;Temp;Humidity;BMP_temperature;BMP_pressure;BME280_temperature;BME280_humidity;BME280_pressure;Samples;Min_cycle;Max_cycle;Signal;HPM_P1;HPM_P2
2022/02/07 00:00:40;;;;;;;12.57;7.00;;;26.80;82.90;;;;;;5064070;28;20021;-44
2022/02/07 00:03:17;;;;;;;11.75;6.63;;;26.80;82.90;;;;;;5064268;28;20039;-42
2022/02/07 00:05:45;;;;;;;14.40;7.30;;;26.80;82.90;;;;;;5064067;28;20043;-48
2022/02/07 00:08:12;;;;;;;94.25;86.72;;;26.80;82.70;;;;;;5064512;28;20021;-44
2022/02/07 00:10:41;;;;;;;19.58;17.38;;;26.80;82.90;;;;;;5063961;28;20040;-53
2022/02/07 00:13:08;;;;;;;14.90;11.18;;;26.80;82.80;;;;;;5064416;28;20017;-50
2022/02/07 00:15:35;;;;;;;12.80;9.15;;;26.80;82.70;;;;;;5064111;28;20256;-50
2022/02/07 00:18:03;;;;;;;15.10;8.73;;;26.80;82.60;;;;;;5065406;28;20020;-46
2022/02/07 00:20:30;;;;;;;11.15;8.00;;;26.80;82.50;;;;;;5064357;28;20017;-44
2022/02/07 00:22:57;;;;;;;11.25;7.13;;;26.80;82.50;;;;;;5063568;28;20033;-43
2022/02/07 00:25:23;;;;;;;11.50;7.60;;;26.80;82.40;;;;;;5063630;28;20020;-43
2022/02/07 00:27:50;;;;;;;19.23;7.63;;;26.80;82.60;;;;;;5063949;28;20029;-46
2022/02/07 00:30:19;;;;;;;25.48;8.65;;;26.80;82.70;;;;;;5063981;28;20127;-49
2022/02/07 00:32:48;;;;;;;10.05;7.53;;;26.80;82.60;;;;;;5056458;28;20228;-44
2022/02/07 00:35:20;;;;;;;17.90;7.97;;;26.80;82.60;;;;;;5081834;28;20104;-47
2022/02/07 00:37:49;;;;;;;13.07;7.82;;;26.80;82.50;;;;;;5084122;28;20040;-44
2022/02/07 00:45:38;;;;;;;12.63;7.32;;;26.80;82.30;;;;;;5063443;28;20028;-52
2022/02/07 00:48:07;;;;;;;11.65;8.48;;;26.80;82.40;;;;;;5063509;28;20024;-46
2022/02/07 00:50:35;;;;;;;12.02;8.43;;;26.70;82.80;;;;;;5063640;28;20095;-51
2022/02/07 00:53:02;;;;;;;14.88;9.55;;;26.80;82.90;;;;;;5063916;28;20245;-43
2022/02/07 00:55:29;;;;;;;15.70;8.98;;;26.80;82.50;;;;;;5070295;28;20020;-46
2022/02/07 00:57:56;;;;;;;11.60;8.88;;;26.70;82.20;;;;;;5083998;28;20088;-49
2022/02/07 01:00:22;;;;;;;13.95;8.45;;;26.80;82.10;;;;;;5083761;28;20017;-45
2022/02/07 01:02:49;;;;;;;13.57;8.23;;;26.70;81.70;;;;;;5087518;28;20101;-48
2022/02/07 01:05:16;;;;;;;13.73;8.77;;;26.70;81.70;;;;;;5069876;28;20017;-44
2022/02/07 01:07:47;;;;;;;11.93;8.35;;;26.70;81.60;;;;;;5067703;28;20055;-50
2022/02/07 01:10:19;;;;;;;15.05;8.98;;;26.70;81.40;;;;;;5067197;28;20032;-50
2022/02/07 01:46:14;;;;;;;11.32;10.18;;;26.70;80.40;;;;;;5066596;28;20352;-48
2022/02/07 01:54:36;;;;;;;13.23;10.43;;;26.70;80.30;;;;;;5066326;28;20063;-43
2022/02/07 01:57:06;;;;;;;12.48;10.70;;;26.70;80.20;;;;;;5066552;28;20025;-47
2022/02/07 01:59:32;;;;;;;12.20;10.23;;;26.70;80.20;;;;;;5066299;28;20008;-46
2022/02/07 02:01:59;;;;;;;13.70;10.55;;;26.70;80.00;;;;;;5066328;28;20082;-43
2022/02/07 02:04:26;;;;;;;12.80;10.38;;;26.70;80.00;;;;;;5066156;28;20026;-44
2022/02/07 02:06:53;;;;;;;14.77;12.55;;;26.70;80.20;;;;;;5066290;28;20304;-47
2022/02/07 02:09:20;;;;;;;35.95;32.30;;;26.70;80.20;;;;;;5066211;28;20359;-43
2022/02/07 02:11:46;;;;;;;72.40;65.93;;;26.70;79.90;;;;;;5066017;28;20021;-45
2022/02/07 02:45:23;;;;;;;14.02;11.50;;;26.70;79.20;;;;;;5085657;28;20020;-54
2022/02/07 02:47:19;;;;;;;39.10;35.53;;;26.70;78.80;;;;;;5085477;28;20365;-53
2022/02/07 02:50:00;;;;;;;26.83;24.15;;;26.70;78.60;;;;;;5085525;28;20253;-46
2022/02/07 02:52:26;;;;;;;20.50;18.67;;;26.70;78.50;;;;;;5065218;28;20036;-51
2022/02/07 02:54:53;;;;;;;14.88;13.15;;;26.60;78.30;;;;;;5065538;28;20041;-45
2022/02/07 02:57:20;;;;;;;18.20;13.57;;;26.60;78.50;;;;;;5064098;28;20336;-46
2022/02/07 02:59:46;;;;;;;16.67;12.63;;;26.60;78.80;;;;;;5065405;28;20024;-44
2022/02/07 03:02:13;;;;;;;13.95;11.30;;;26.60;78.50;;;;;;5064791;28;20031;-49
2022/02/07 03:04:39;;;;;;;18.45;11.55;;;26.60;78.30;;;;;;5065354;28;20012;-44
2022/02/07 03:07:06;;;;;;;13.75;10.90;;;26.60;78.50;;;;;;5080771;28;20028;-46
2022/02/07 03:09:33;;;;;;;15.93;11.18;;;26.60;78.30;;;;;;5085166;28;20016;-48
2022/02/07 03:11:59;;;;;;;12.23;11.05;;;26.60;78.30;;;;;;5085341;28;20024;-48
2022/02/07 03:14:42;;;;;;;14.18;10.65;;;26.60;78.50;;;;;;5085062;28;20024;-45
2022/02/07 03:17:09;;;;;;;14.40;10.25;;;26.60;78.30;;;;;;5084811;28;20367;-45
2022/02/07 03:19:35;;;;;;;11.10;10.00;;;26.60;78.40;;;;;;5084925;28;20050;-43
2022/02/07 03:22:02;;;;;;;11.45;9.88;;;26.60;78.70;;;;;;5083714;28;20032;-44
2022/02/07 03:24:29;;;;;;;11.77;10.55;;;26.60;78.60;;;;;;5083664;28;20328;-44
2022/02/07 03:26:56;;;;;;;44.83;40.45;;;26.60;78.70;;;;;;5084785;28;20040;-54
2022/02/07 03:29:22;;;;;;;34.83;31.15;;;26.60;78.90;;;;;;5085204;28;20012;-52
2022/02/07 03:31:49;;;;;;;32.15;29.08;;;26.60;78.90;;;;;;5084995;28;20021;-52
2022/02/07 03:34:16;;;;;;;22.05;18.17;;;26.60;78.70;;;;;;5084837;28;20282;-52
2022/02/07 03:36:43;;;;;;;18.23;16.42;;;26.60;78.70;;;;;;5084167;28;20099;-54
2022/02/07 03:39:10;;;;;;;16.67;14.63;;;26.60;78.70;;;;;;5084943;28;20092;-51
2022/02/07 03:41:37;;;;;;;15.50;13.90;;;26.60;78.60;;;;;;5084704;28;20028;-54
2022/02/07 03:44:05;;;;;;;14.23;12.75;;;26.60;78.50;;;;;;5084586;28;20091;-59
2022/02/07 03:46:32;;;;;;;16.00;12.50;;;26.60;78.40;;;;;;5084537;28;20087;-53
2022/02/07 03:48:58;;;;;;;14.15;12.02;;;26.60;78.40;;;;;;5084897;28;20012;-52
2022/02/07 03:51:25;;;;;;;15.82;12.73;;;26.60;78.40;;;;;;5085096;28;20013;-52
2022/02/07 03:53:51;;;;;;;13.57;11.55;;;26.60;78.50;;;;;;5084624;28;20023;-52
2022/02/07 03:56:18;;;;;;;14.13;12.65;;;26.60;78.50;;;;;;5084405;28;20212;-53
2022/02/07 03:58:45;;;;;;;15.05;13.55;;;26.60;78.50;;;;;;5084510;28;20035;-53
2022/02/07 04:01:12;;;;;;;18.13;13.00;;;26.60;78.60;;;;;;5084307;28;20020;-51
2022/02/07 04:03:39;;;;;;;15.48;13.55;;;26.60;78.50;;;;;;5084246;28;20016;-56
2022/02/07 04:06:12;;;;;;;17.88;13.82;;;26.60;78.60;;;;;;5084556;28;20058;-56
2022/02/07 04:08:43;;;;;;;17.13;13.15;;;26.60;78.50;;;;;;5071241;28;20036;-49
2022/02/07 04:11:18;;;;;;;17.27;13.40;;;26.60;78.60;;;;;;5064695;28;20013;-50
2022/02/07 04:13:51;;;;;;;17.20;13.30;;;26.60;78.60;;;;;;5064436;28;20032;-55
2022/02/07 04:16:19;;;;;;;15.38;13.15;;;26.60;78.70;;;;;;5064398;28;20025;-56
2022/02/07 04:19:02;;;;;;;19.83;14.38;;;26.60;78.70;;;;;;5064481;28;20017;-53
2022/02/07 04:21:31;;;;;;;14.63;13.00;;;26.60;78.70;;;;;;5064578;28;20060;-50
2022/02/07 04:23:59;;;;;;;15.60;13.63;;;26.60;78.80;;;;;;5064344;28;20021;-53
2022/02/07 04:26:26;;;;;;;16.27;13.25;;;26.60;78.90;;;;;;5064236;28;20043;-53
2022/02/07 04:28:53;;;;;;;14.07;11.85;;;26.60;78.80;;;;;;5064323;28;20044;-58
2022/02/07 04:31:19;;;;;;;19.52;12.40;;;26.60;78.80;;;;;;5064315;28;20013;-57
2022/02/07 04:33:46;;;;;;;14.90;12.32;;;26.60;78.70;;;;;;5064224;28;20080;-62
2022/02/07 04:36:13;;;;;;;15.23;11.93;;;26.60;78.70;;;;;;5064330;28;20048;-52
2022/02/07 04:38:41;;;;;;;15.15;11.93;;;26.60;78.70;;;;;;5064603;28;20017;-54
2022/02/07 04:41:09;;;;;;;14.30;12.05;;;26.60;78.70;;;;;;5064148;28;20240;-53
2022/02/07 04:43:39;;;;;;;12.90;11.48;;;26.70;78.80;;;;;;5063160;28;20052;-52
2022/02/07 04:46:31;;;;;;;12.63;11.27;;;26.70;78.70;;;;;;5064276;28;20013;-57
2022/02/07 04:49:12;;;;;;;13.52;11.35;;;26.60;78.70;;;;;;5064456;28;20084;-57
2022/02/07 04:54:46;;;;;;;12.85;11.45;;;26.60;78.80;;;;;;5064084;28;20017;-53
2022/02/07 04:57:28;;;;;;;12.50;11.30;;;26.60;78.80;;;;;;5064153;28;20024;-56
2022/02/07 05:02:39;;;;;;;11.38;10.25;;;26.60;78.80;;;;;;5084317;28;20029;-51
2022/02/07 05:16:14;;;;;;;12.63;11.27;;;26.60;78.90;;;;;;5083957;28;20028;-53
2022/02/07 05:18:41;;;;;;;13.00;10.85;;;26.70;79.00;;;;;;5083958;28;20017;-50
2022/02/07 05:21:08;;;;;;;12.95;10.90;;;26.60;78.90;;;;;;5083849;28;20056;-55
2022/02/07 05:23:34;;;;;;;12.10;10.82;;;26.60;78.90;;;;;;5083918;28;20066;-53
2022/02/07 05:26:01;;;;;;;12.10;10.77;;;26.60;78.80;;;;;;5083943;28;20024;-55
2022/02/07 05:28:27;;;;;;;11.30;10.02;;;26.60;78.70;;;;;;5084217;28;20096;-54
2022/02/07 05:30:54;;;;;;;11.68;10.48;;;26.60;78.70;;;;;;5083900;28;20040;-51
2022/02/07 05:33:20;;;;;;;14.85;10.63;;;26.70;78.60;;;;;;5084200;28;20025;-54
2022/02/07 05:35:47;;;;;;;12.45;10.18;;;26.70;78.60;;;;;;5083775;28;20368;-54
2022/02/07 05:38:14;;;;;;;11.30;10.18;;;26.60;78.50;;;;;;5084190;28;20032;-49
2022/02/07 05:40:51;;;;;;;14.10;11.20;;;26.60;78.50;;;;;;5083855;28;20024;-51
2022/02/07 05:43:18;;;;;;;13.20;10.82;;;26.70;78.60;;;;;;5083902;28;20032;-51
2022/02/07 05:45:45;;;;;;;11.35;10.35;;;26.60;78.50;;;;;;5083700;28;20127;-52
2022/02/07 05:48:12;;;;;;;11.30;10.15;;;26.70;78.60;;;;;;5085737;28;20036;-54
2022/02/07 05:50:38;;;;;;;12.38;11.07;;;26.60;78.60;;;;;;5087132;28;20051;-54
2022/02/07 05:53:05;;;;;;;11.55;10.45;;;26.60;78.60;;;;;;5087551;28;20024;-54
2022/02/07 05:55:32;;;;;;;13.73;11.10;;;26.60;78.60;;;;;;5087179;28;20079;-52
2022/02/07 05:57:58;;;;;;;11.48;10.02;;;26.60;78.70;;;;;;5087309;28;20058;-54
2022/02/07 06:00:26;;;;;;;13.27;10.50;;;26.60;78.70;;;;;;5087074;28;20016;-53
2022/02/07 06:02:52;;;;;;;16.20;11.27;;;26.60;78.70;;;;;;5087401;28;20036;-51
2022/02/07 06:05:19;;;;;;;12.02;10.73;;;26.60;78.80;;;;;;5086837;28;20023;-48
2022/02/07 06:07:45;;;;;;;12.32;10.70;;;26.60;78.70;;;;;;5087344;28;20091;-48
2022/02/07 06:10:12;;;;;;;12.25;10.90;;;26.60;78.70;;;;;;5086333;28;20012;-51
2022/02/07 06:12:40;;;;;;;12.63;11.30;;;26.60;78.80;;;;;;5087159;28;20130;-51
2022/02/07 06:15:08;;;;;;;12.20;10.98;;;26.60;78.70;;;;;;5086852;28;20020;-54
2022/02/07 06:17:35;;;;;;;14.13;10.65;;;26.60;78.70;;;;;;5086762;28;20035;-52
2022/02/07 06:20:01;;;;;;;12.38;11.07;;;26.60;78.70;;;;;;5086600;28;20198;-55
2022/02/07 06:22:28;;;;;;;11.48;10.38;;;26.60;78.70;;;;;;5086813;28;20305;-53
2022/02/07 06:24:55;;;;;;;13.18;11.63;;;26.60;78.80;;;;;;5086530;28;20031;-54
2022/02/07 06:27:21;;;;;;;12.95;11.43;;;26.60;78.80;;;;;;5086694;28;20063;-53
2022/02/07 06:29:48;;;;;;;12.98;10.70;;;26.60;78.80;;;;;;5086463;28;20013;-50
2022/02/07 06:32:14;;;;;;;13.68;10.73;;;26.60;78.80;;;;;;5086762;28;20159;-54
2022/02/07 06:34:41;;;;;;;12.00;10.77;;;26.60;78.70;;;;;;5086220;28;20060;-51
2022/02/07 06:37:08;;;;;;;15.45;11.38;;;26.60;78.70;;;;;;5086450;28;20028;-49
2022/02/07 06:39:35;;;;;;;12.23;10.90;;;26.60;78.60;;;;;;5086301;28;20016;-51
2022/02/07 06:42:02;;;;;;;11.93;10.75;;;26.60;78.40;;;;;;5086460;28;20028;-51
2022/02/07 06:44:28;;;;;;;11.60;10.38;;;26.60;78.60;;;;;;5086105;28;20020;-53
2022/02/07 06:46:55;;;;;;;12.07;10.77;;;26.60;78.50;;;;;;5086304;28;20146;-53
2022/02/07 06:49:22;;;;;;;13.18;10.75;;;26.60;78.50;;;;;;5086154;28;20023;-51
2022/02/07 06:51:48;;;;;;;11.88;10.68;;;26.60;78.60;;;;;;5086275;28;20028;-55
2022/02/07 06:54:15;;;;;;;15.18;10.80;;;26.60;78.60;;;;;;5086020;28;20021;-56
2022/02/07 06:56:43;;;;;;;11.23;10.13;;;26.60;78.60;;;;;;5086083;28;20048;-54
2022/02/07 06:59:10;;;;;;;13.50;11.25;;;26.60;78.70;;;;;;5085666;28;20150;-54
2022/02/07 07:01:36;;;;;;;13.93;11.10;;;26.60;78.90;;;;;;5085805;28;20032;-55
2022/02/07 07:04:03;;;;;;;11.55;10.45;;;26.60;78.70;;;;;;5085876;28;20066;-51
2022/02/07 07:06:30;;;;;;;11.48;10.38;;;26.60;78.60;;;;;;5085848;28;20025;-50
2022/02/07 07:08:56;;;;;;;13.18;11.52;;;26.60;78.70;;;;;;5085822;28;20016;-50
2022/02/07 07:11:26;;;;;;;12.27;10.55;;;26.60;78.70;;;;;;5085702;28;20016;-51
2022/02/07 07:14:01;;;;;;;11.65;10.57;;;26.60;78.70;;;;;;5085520;28;20260;-50
2022/02/07 07:19:01;;;;;;;11.30;10.20;;;26.60;78.50;;;;;;5085405;28;20040;-51
2022/02/07 07:21:28;;;;;;;12.73;11.43;;;26.60;78.40;;;;;;5085316;28;20212;-53
2022/02/07 07:23:55;;;;;;;12.60;11.15;;;26.60;78.40;;;;;;5085325;28;20044;-51
2022/02/07 07:26:24;;;;;;;12.35;10.70;;;26.60;78.30;;;;;;5084664;28;20017;-52
2022/02/07 07:28:53;;;;;;;12.07;10.80;;;26.60;78.40;;;;;;5084896;28;20016;-57
2022/02/07 07:31:23;;;;;;;12.55;11.25;;;26.60;78.40;;;;;;5085178;28;20087;-50
2022/02/07 07:33:52;;;;;;;11.98;10.48;;;26.60;78.40;;;;;;5085112;28;20072;-52
2022/02/07 07:36:21;;;;;;;12.45;10.27;;;26.60;78.40;;;;;;5084604;28;20319;-54
2022/02/07 07:38:48;;;;;;;12.20;11.10;;;26.60;78.40;;;;;;5084842;28;20021;-51
2022/02/07 07:41:15;;;;;;;13.57;10.23;;;26.60;78.50;;;;;;5084603;28;20023;-55
2022/02/07 07:43:46;;;;;;;12.15;10.32;;;26.60;78.50;;;;;;5084770;28;20028;-51
2022/02/07 07:46:15;;;;;;;14.30;10.35;;;26.60;78.60;;;;;;5084716;28;20159;-48
2022/02/07 07:48:48;;;;;;;11.65;10.45;;;26.60;78.60;;;;;;5084448;28;20024;-53
2022/02/07 07:52:03;;;;;;;13.25;11.05;;;26.60;78.50;;;;;;5084469;28;20016;-52
2022/02/07 08:02:24;;;;;;;11.88;10.40;;;26.60;79.00;;;;;;5084482;28;20077;-57
2022/02/07 08:04:53;;;;;;;12.13;10.88;;;26.60;79.10;;;;;;5084103;28;20032;-53
2022/02/07 08:07:31;;;;;;;13.05;10.60;;;26.60;79.10;;;;;;5084831;28;20034;-58
2022/02/07 08:10:46;;;;;;;12.77;10.93;;;26.60;79.10;;;;;;5084349;28;20320;-52
2022/02/07 08:12:49;;;;;;;14.13;10.95;;;26.60;79.20;;;;;;5079100;28;20041;-51
2022/02/07 08:15:17;;;;;;;12.88;11.55;;;26.60;79.20;;;;;;5084103;28;20031;-55
2022/02/07 08:17:44;;;;;;;11.77;10.68;;;26.50;79.10;;;;;;5084462;28;20055;-56
2022/02/07 08:20:11;;;;;;;12.60;11.38;;;26.60;79.20;;;;;;5084522;28;20263;-55
2022/02/07 08:22:37;;;;;;;12.63;11.13;;;26.60;79.10;;;;;;5084410;28;20258;-54
2022/02/07 08:25:06;;;;;;;12.55;11.35;;;26.60;79.20;;;;;;5083963;28;20028;-57
2022/02/07 08:27:32;;;;;;;13.93;12.35;;;26.60;79.20;;;;;;5084560;28;20078;-53
2022/02/07 08:29:59;;;;;;;13.60;12.20;;;26.60;79.20;;;;;;5084160;28;20017;-52
2022/02/07 08:32:26;;;;;;;12.65;11.45;;;26.50;79.20;;;;;;5084108;28;20298;-49
2022/02/07 08:34:59;;;;;;;15.68;12.32;;;26.50;79.80;;;;;;5083605;28;20112;-53
2022/02/07 08:37:26;;;;;;;12.73;11.35;;;26.60;79.50;;;;;;5084185;28;20082;-49
2022/02/07 08:39:53;;;;;;;15.57;13.02;;;26.50;79.40;;;;;;5084118;28;20054;-55
2022/02/07 08:42:19;;;;;;;14.00;12.15;;;26.50;79.40;;;;;;5084380;28;20033;-54
2022/02/07 08:44:47;;;;;;;14.05;12.75;;;26.50;79.40;;;;;;5083783;28;20212;-53
2022/02/07 08:47:13;;;;;;;13.40;11.98;;;26.50;79.30;;;;;;5084036;28;20029;-57
2022/02/07 08:49:40;;;;;;;15.02;12.85;;;26.50;79.40;;;;;;5084106;28;20012;-48
2022/02/07 08:52:07;;;;;;;17.00;13.40;;;26.50;79.40;;;;;;5084129;28;20032;-53
2022/02/07 08:54:35;;;;;;;13.80;12.32;;;26.50;79.50;;;;;;5084366;28;20204;-54
2022/02/07 09:00:13;;;;;;;14.77;13.35;;;26.50;79.30;;;;;;5083870;28;20020;-53
2022/02/07 09:08:23;;;;;;;13.85;12.20;;;26.50;79.60;;;;;;5060493;28;20033;-53
2022/02/07 09:10:51;;;;;;;13.80;12.38;;;26.50;79.60;;;;;;5084250;28;20039;-56
2022/02/07 09:13:19;;;;;;;13.63;12.32;;;26.50;79.70;;;;;;5084513;28;20060;-53
2022/02/07 09:16:04;;;;;;;13.85;12.43;;;26.50;79.70;;;;;;5083798;28;20201;-53
2022/02/07 09:18:31;;;;;;;15.52;12.93;;;26.50;79.80;;;;;;5084282;28;20032;-52
2022/02/07 09:21:00;;;;;;;14.48;13.07;;;26.50;80.00;;;;;;5083389;28;20027;-55
2022/02/07 09:23:28;;;;;;;13.82;12.43;;;26.50;80.10;;;;;;5085926;28;20063;-52
2022/02/07 09:25:57;;;;;;;13.48;11.77;;;26.50;80.10;;;;;;5087398;28;20044;-56
2022/02/07 09:28:24;;;;;;;15.73;12.70;;;26.50;80.20;;;;;;5087814;28;20020;-53
2022/02/07 09:30:53;;;;;;;13.35;12.02;;;26.50;80.30;;;;;;5087480;28;20020;-53
2022/02/07 09:33:21;;;;;;;16.08;12.15;;;26.50;80.20;;;;;;5086923;28;20197;-59
2022/02/07 09:35:49;;;;;;;15.48;12.43;;;26.50;80.20;;;;;;5086805;28;20216;-53
2022/02/07 09:38:17;;;;;;;13.43;11.90;;;26.50;80.40;;;;;;5087238;28;20048;-51
2022/02/07 09:40:50;;;;;;;13.07;11.77;;;26.50;80.60;;;;;;5087153;28;20048;-49
2022/02/07 09:43:18;;;;;;;13.77;12.32;;;26.50;80.60;;;;;;5087174;28;20316;-56
2022/02/07 09:45:48;;;;;;;13.55;12.27;;;26.40;80.60;;;;;;5087381;28;20020;-58
2022/02/07 09:48:16;;;;;;;13.18;11.88;;;26.50;80.80;;;;;;5087145;28;20209;-58
2022/02/07 09:50:44;;;;;;;13.48;11.70;;;26.40;80.80;;;;;;5085519;28;20019;-59
2022/02/07 09:53:12;;;;;;;14.65;11.80;;;26.50;80.90;;;;;;5087325;28;20032;-53
2022/02/07 09:55:39;;;;;;;17.48;12.80;;;26.40;81.00;;;;;;5087171;28;20020;-54
2022/02/07 09:58:06;;;;;;;14.40;11.73;;;26.50;81.20;;;;;;5086923;28;20031;-53
2022/02/07 10:00:35;;;;;;;14.35;12.15;;;26.40;81.10;;;;;;5086636;28;20032;-54
2022/02/07 10:05:46;;;;;;;17.98;12.27;;;26.40;81.00;;;;;;5086498;28;20052;-53
2022/02/07 10:08:21;;;;;;;13.05;11.77;;;26.50;81.10;;;;;;5086908;28;20028;-52
2022/02/07 10:11:16;;;;;;;15.82;11.98;;;26.40;80.90;;;;;;5086796;28;20109;-55
2022/02/07 10:14:04;;;;;;;15.10;11.82;;;26.50;80.90;;;;;;5086537;28;20024;-55
2022/02/07 10:16:50;;;;;;;17.00;11.52;;;26.50;80.80;;;;;;5085110;28;20251;-53
2022/02/07 10:43:46;;;;;;;;;;;26.40;80.30;;;;;;5086795;28;20012;-56
2022/02/07 10:46:18;;;;;;;16.70;12.50;;;26.40;80.30;;;;;;5085900;28;19904;-47
2022/02/07 10:48:51;;;;;;;17.02;11.63;;;26.40;80.30;;;;;;5085903;28;20044;-48
2022/02/07 10:51:32;;;;;;;13.57;11.90;;;26.40;80.30;;;;;;5085711;28;20089;-50
2022/02/07 10:54:02;;;;;;;15.85;12.00;;;26.40;80.40;;;;;;5067928;28;20032;-53
2022/02/07 10:56:45;;;;;;;12.50;11.20;;;26.40;80.30;;;;;;5085587;28;20028;-63
2022/02/07 10:59:18;;;;;;;14.10;12.13;;;26.40;80.30;;;;;;5085223;28;20024;-51
2022/02/07 11:04:24;;;;;;;15.48;11.52;;;26.40;80.30;;;;;;5085283;28;20012;-52
2022/02/07 11:06:57;;;;;;;17.23;11.98;;;26.40;80.40;;;;;;5085361;28;20083;-53
2022/02/07 11:09:34;;;;;;;16.80;12.27;;;26.40;80.30;;;;;;5085192;28;20021;-59
2022/02/07 11:20:02;;;;;;;19.42;12.50;;;26.40;80.90;;;;;;5084997;28;20044;-50
2022/02/07 11:28:24;;;;;;;21.02;12.65;;;26.40;81.00;;;;;;5085166;28;20188;-49
2022/02/07 11:31:05;;;;;;;18.33;13.70;;;26.40;81.00;;;;;;5083224;28;20023;-52
2022/02/07 11:33:48;;;;;;;22.00;13.40;;;26.30;81.00;;;;;;5083858;28;20088;-48
2022/02/07 11:36:41;;;;;;;15.70;13.65;;;26.30;81.20;;;;;;5083910;28;20024;-47
2022/02/07 11:39:20;;;;;;;17.48;14.18;;;26.40;81.90;;;;;;5080295;28;20024;-47
2022/02/07 11:42:11;;;;;;;18.17;14.10;;;26.30;81.40;;;;;;5083683;28;20332;-48
2022/02/07 11:44:43;;;;;;;21.15;13.55;;;26.30;81.60;;;;;;5083944;28;20079;-48
2022/02/07 11:47:22;;;;;;;23.83;13.60;;;26.30;81.50;;;;;;5084771;28;20028;-45
2022/02/07 11:49:51;;;;;;;19.52;13.60;;;26.30;81.60;;;;;;5084692;28;20051;-48
2022/02/07 11:52:45;;;;;;;16.73;13.77;;;26.30;81.60;;;;;;5084778;28;20261;-49
2022/02/07 11:55:35;;;;;;;26.98;14.00;;;26.30;81.60;;;;;;5084539;28;20017;-46
2022/02/07 11:58:13;;;;;;;31.38;14.60;;;26.30;81.70;;;;;;5084890;28;20051;-53
2022/02/07 12:00:49;;;;;;;21.20;13.30;;;26.30;82.20;;;;;;5085045;28;20020;-52
2022/02/07 12:03:18;;;;;;;25.05;14.18;;;26.30;81.80;;;;;;5084425;28;20201;-49
2022/02/07 12:05:51;;;;;;;19.40;13.73;;;26.30;81.70;;;;;;5085033;28;20024;-47
2022/02/07 12:08:19;;;;;;;17.17;13.52;;;26.30;81.80;;;;;;5085281;28;20020;-49
2022/02/07 12:11:02;;;;;;;20.40;13.15;;;26.30;81.80;;;;;;5085017;28;20310;-55
2022/02/07 12:13:41;;;;;;;18.08;13.93;;;26.30;81.90;;;;;;5085351;28;20087;-48
2022/02/07 12:16:14;;;;;;;20.08;13.90;;;26.30;82.00;;;;;;5084660;28;20023;-46
2022/02/07 12:18:40;;;;;;;;;;;26.30;82.00;;;;;;5083880;28;20233;-47
2022/02/07 12:21:29;;;;;;;21.55;13.85;;;26.30;82.00;;;;;;5084625;28;19923;-55
2022/02/07 12:24:03;;;;;;;20.70;13.65;;;26.30;82.10;;;;;;5084412;28;20085;-46
2022/02/07 12:26:36;;;;;;;15.07;13.57;;;26.30;82.10;;;;;;5084475;28;20028;-48
2022/02/07 12:29:09;;;;;;;21.52;14.88;;;26.30;82.30;;;;;;5084140;28;20177;-48
2022/02/07 12:31:40;;;;;;;19.52;13.18;;;26.30;82.40;;;;;;5084243;28;20025;-47
2022/02/07 12:34:18;;;;;;;19.15;14.55;;;26.30;82.40;;;;;;5084358;28;20059;-49
2022/02/07 12:36:44;;;;;;;18.95;13.63;;;26.30;82.70;;;;;;5084538;28;20029;-47
2022/02/07 12:39:14;;;;;;;21.08;15.07;;;26.30;82.60;;;;;;5085041;28;20029;-45
2022/02/07 12:41:41;;;;;;;25.00;14.10;;;26.30;82.70;;;;;;5084436;28;20089;-47
2022/02/07 12:44:10;;;;;;;18.05;13.90;;;26.30;82.90;;;;;;5083886;28;20016;-47
2022/02/07 12:46:45;;;;;;;15.25;13.35;;;26.30;83.00;;;;;;5083864;28;20061;-44
2022/02/07 12:49:13;;;;;;;18.50;13.90;;;26.30;83.00;;;;;;5082738;28;20017;-48
2022/02/07 12:51:43;;;;;;;15.15;13.50;;;26.30;83.00;;;;;;5083706;28;20182;-48
2022/02/07 12:54:11;;;;;;;21.10;13.70;;;26.30;83.00;;;;;;5084032;28;20016;-45
2022/02/07 12:56:39;;;;;;;16.48;12.43;;;26.30;83.00;;;;;;5085018;28;20024;-58
2022/02/07 12:59:06;;;;;;;15.68;12.27;;;26.30;82.90;;;;;;5087715;28;20027;-49
2022/02/07 13:01:36;;;;;;;16.65;12.48;;;26.40;83.10;;;;;;5088095;28;20020;-48
2022/02/07 13:04:06;;;;;;;17.38;12.90;;;26.30;83.10;;;;;;5087578;28;20031;-47
2022/02/07 13:06:36;;;;;;;13.98;11.85;;;26.40;83.10;;;;;;5087554;28;20024;-50
2022/02/07 13:09:18;;;;;;;13.82;12.05;;;26.30;83.00;;;;;;5087765;28;20017;-50
2022/02/07 13:12:00;;;;;;;16.75;12.65;;;26.30;82.90;;;;;;5087734;28;20021;-48
2022/02/07 13:14:27;;;;;;;17.08;12.18;;;26.40;83.20;;;;;;5087266;28;20388;-49
2022/02/07 13:16:54;;;;;;;14.95;12.65;;;26.30;83.50;;;;;;5088151;28;20313;-46
2022/02/07 13:19:21;;;;;;;15.02;12.60;;;26.30;83.40;;;;;;5087790;28;20204;-49
2022/02/07 13:21:52;;;;;;;19.15;13.00;;;26.30;83.50;;;;;;5087858;28;20025;-50
2022/02/07 13:24:20;;;;;;;18.85;14.55;;;26.40;83.60;;;;;;5087374;28;20024;-48
2022/02/07 13:26:52;;;;;;;16.35;13.38;;;26.30;83.60;;;;;;5087898;28;20028;-54
2022/02/07 13:29:34;;;;;;;19.73;14.02;;;26.30;83.70;;;;;;5086318;28;20013;-48
2022/02/07 13:32:06;;;;;;;18.63;14.32;;;26.30;83.70;;;;;;5087468;28;20028;-47
2022/02/07 13:34:36;;;;;;;18.23;14.73;;;26.30;83.70;;;;;;5087403;28;20388;-48
2022/02/07 13:37:16;;;;;;;23.88;14.65;;;26.40;83.90;;;;;;5087363;28;20041;-47
2022/02/07 13:40:17;;;;;;;20.90;14.05;;;26.30;83.90;;;;;;5087033;28;20204;-53
2022/02/07 13:42:49;;;;;;;20.95;14.80;;;26.40;84.00;;;;;;5087445;28;20048;-52
2022/02/07 13:45:20;;;;;;;24.80;15.10;;;26.40;84.00;;;;;;5086782;28;20043;-51
2022/02/07 13:47:50;;;;;;;16.55;13.98;;;26.40;84.20;;;;;;5087731;28;20035;-52
2022/02/07 13:50:23;;;;;;;17.40;13.57;;;26.40;84.10;;;;;;5086965;28;20092;-51
2022/02/07 13:52:52;;;;;;;22.00;13.65;;;26.40;84.20;;;;;;5087116;28;20312;-51
2022/02/07 13:55:21;;;;;;;20.08;13.70;;;26.40;84.10;;;;;;5087335;28;20024;-48
2022/02/07 13:57:55;;;;;;;16.00;13.23;;;26.40;84.10;;;;;;5087316;28;20027;-52
2022/02/07 14:00:43;;;;;;;14.75;12.70;;;26.40;83.90;;;;;;5087053;28;20051;-46
2022/02/07 14:03:18;;;;;;;13.57;12.15;;;26.50;84.00;;;;;;5072693;28;20243;-52
2022/02/07 14:05:49;;;;;;;16.63;12.55;;;26.40;83.90;;;;;;5086816;28;20021;-54
2022/02/07 14:08:17;;;;;;;14.38;11.48;;;26.50;83.80;;;;;;5086499;28;20024;-48
2022/02/07 14:10:45;;;;;;;14.50;11.27;;;26.50;83.90;;;;;;5086653;28;20017;-45
2022/02/07 14:13:17;;;;;;;13.40;10.70;;;26.50;84.10;;;;;;5087321;28;20059;-49
2022/02/07 14:15:45;;;;;;;12.55;11.05;;;26.50;84.20;;;;;;5085709;28;20024;-50
2022/02/07 14:18:16;;;;;;;13.48;10.60;;;26.50;84.10;;;;;;5087174;28;20032;-53
2022/02/07 14:20:43;;;;;;;16.27;10.55;;;26.60;84.00;;;;;;5086739;28;20016;-48
2022/02/07 14:23:11;;;;;;;11.60;10.25;;;26.60;83.90;;;;;;5086882;28;20032;-46
2022/02/07 14:25:39;;;;;;;14.43;10.57;;;26.60;83.70;;;;;;5086449;28;20056;-49
2022/02/07 14:28:07;;;;;;;15.63;11.20;;;26.60;83.60;;;;;;5086902;28;20288;-50
2022/02/07 14:30:34;;;;;;;15.60;10.77;;;26.60;83.50;;;;;;5086902;28;20023;-51
2022/02/07 14:33:02;;;;;;;12.85;10.50;;;26.60;83.40;;;;;;5086201;28;20021;-46
2022/02/07 14:35:29;;;;;;;11.52;10.32;;;26.60;83.00;;;;;;5086265;28;20055;-46
2022/02/07 14:37:56;;;;;;;13.10;10.73;;;26.60;82.90;;;;;;5086501;28;20058;-49
2022/02/07 14:40:23;;;;;;;18.83;10.88;;;26.70;82.80;;;;;;5086664;28;20021;-46
2022/02/07 14:42:50;;;;;;;13.43;10.02;;;26.70;82.80;;;;;;5086366;28;20028;-52
2022/02/07 14:45:24;;;;;;;12.02;10.50;;;26.70;82.60;;;;;;5085921;28;20021;-53
2022/02/07 14:47:51;;;;;;;12.73;10.38;;;26.70;82.60;;;;;;5086363;28;20106;-48
2022/02/07 14:50:26;;;;;;;13.35;10.23;;;26.70;82.60;;;;;;5085909;28;20028;-49
2022/02/07 14:52:53;;;;;;;12.07;10.30;;;26.70;82.50;;;;;;5086046;28;20025;-51
2022/02/07 14:55:21;;;;;;;12.20;9.88;;;26.80;82.80;;;;;;5085692;28;20024;-46
2022/02/07 14:57:48;;;;;;;13.50;10.85;;;26.80;82.80;;;;;;5086254;28;20200;-49
2022/02/07 15:00:18;;;;;;;15.00;10.35;;;26.80;82.60;;;;;;5085955;28;20088;-45
2022/02/07 15:02:45;;;;;;;12.43;10.00;;;26.80;82.50;;;;;;5086192;28;20301;-49
2022/02/07 15:05:12;;;;;;;13.70;9.63;;;26.80;82.50;;;;;;5085423;28;20021;-49
2022/02/07 15:07:39;;;;;;;11.45;9.68;;;26.80;82.40;;;;;;5085631;28;20032;-57
2022/02/07 15:10:08;;;;;;;13.75;10.15;;;26.90;82.40;;;;;;5085616;28;20017;-49
2022/02/07 15:12:35;;;;;;;12.13;9.45;;;26.90;82.30;;;;;;5086201;28;20032;-50
2022/02/07 15:15:03;;;;;;;11.32;9.88;;;26.90;82.20;;;;;;5085511;28;20301;-50
2022/02/07 15:17:30;;;;;;;12.60;10.07;;;26.90;82.10;;;;;;5085634;28;20032;-50